Time;durP1;ratioP1;P1;durP2;ratioP2;P2;SDS_P1;SDS_P2;PMS_P1;PMS_P2;Temp;Humidity;BMP_temperature;BMP_pressure;BME280_temperature;BME280_humidity;BME280_pressure;Samples;Min_cycle;Max_cycle;Signal;HPM_P1;HPM_P2
2023/10/05 00:01:30;0.00;0.00;0.62;0.00;0.00;0.62;5.53;2.43;;;26.70;27.90;;;;;;2277035;60;20974;-65
2023/10/05 00:04:18;0.00;0.00;0.62;0.00;0.00;0.62;4.27;2.40;;;26.60;27.90;;;;;;2277133;60;20862;-65
2023/10/05 00:07:04;0.00;0.00;0.62;0.00;0.00;0.62;3.50;2.23;;;26.60;27.90;;;;;;2276839;60;20356;-65
2023/10/05 00:09:50;0.00;0.00;0.62;0.00;0.00;0.62;3.73;2.30;;;26.60;27.90;;;;;;2276918;60;20901;-65
2023/10/05 00:12:35;0.00;0.00;0.62;0.00;0.00;0.62;5.43;2.60;;;26.60;27.90;;;;;;2276821;60;20846;-66
2023/10/05 00:15:23;0.00;0.00;0.62;0.00;0.00;0.62;5.70;2.57;;;26.60;27.90;;;;;;2276903;60;20377;-66
2023/10/05 00:18:08;0.00;0.00;0.62;0.00;0.00;0.62;3.13;2.33;;;26.60;27.90;;;;;;2276438;60;20495;-65
2023/10/05 00:20:54;0.00;0.00;0.62;0.00;0.00;0.62;4.50;2.53;;;26.60;27.90;;;;;;2276915;60;20392;-65
2023/10/05 00:23:41;0.00;0.00;0.62;0.00;0.00;0.62;4.63;2.30;;;26.60;27.90;;;;;;2276953;60;20817;-65
2023/10/05 00:26:28;0.00;0.00;0.62;0.00;0.00;0.62;3.57;2.20;;;26.60;27.90;;;;;;2276814;60;20357;-66
2023/10/05 00:32:35;0.00;0.00;0.62;0.00;0.00;0.62;3.30;2.10;;;26.60;27.90;;;;;;2259603;61;20389;-65
2023/10/05 00:35:32;0.00;0.00;0.62;0.00;0.00;0.62;3.60;2.40;;;26.60;27.90;;;;;;2256790;61;20436;-64
2023/10/05 00:38:18;0.00;0.00;0.62;0.00;0.00;0.62;3.87;2.10;;;26.60;27.90;;;;;;2259289;61;20420;-65
2023/10/05 00:41:08;0.00;0.00;0.62;0.00;0.00;0.62;3.53;2.10;;;26.60;27.90;;;;;;2259623;61;20425;-64
2023/10/05 00:43:55;0.00;0.00;0.62;0.00;0.00;0.62;4.63;2.20;;;26.60;28.00;;;;;;2259796;61;20781;-65
2023/10/05 00:46:42;0.00;0.00;0.62;0.00;0.00;0.62;3.63;2.23;;;26.60;28.00;;;;;;2259797;61;20365;-65
2023/10/05 00:49:29;0.00;0.00;0.62;0.00;0.00;0.62;4.63;2.47;;;26.60;28.00;;;;;;2259065;61;20411;-62
2023/10/05 00:52:23;0.00;0.00;0.62;0.00;0.00;0.62;3.50;1.73;;;26.60;28.00;;;;;;2259429;61;20459;-66
2023/10/05 00:55:11;0.00;0.00;0.62;0.00;0.00;0.62;3.93;2.33;;;26.50;27.90;;;;;;2259470;61;20516;-65
2023/10/05 00:57:56;0.00;0.00;0.62;0.00;0.00;0.62;4.13;2.30;;;26.60;28.00;;;;;;2259086;61;20377;-65
2023/10/05 01:00:50;0.00;0.00;0.62;0.00;0.00;0.62;3.47;2.20;;;26.60;28.00;;;;;;2259478;61;20385;-65
2023/10/05 01:03:35;0.00;0.00;0.62;0.00;0.00;0.62;3.70;2.37;;;26.60;28.00;;;;;;2272699;61;20362;-63
2023/10/05 01:06:29;0.00;0.00;0.62;0.00;0.00;0.62;3.10;1.97;;;26.50;27.90;;;;;;2269629;61;20401;-66
2023/10/05 01:09:39;0.00;0.00;0.62;0.00;0.00;0.62;3.40;1.83;;;26.60;28.00;;;;;;2272367;61;20884;-66
2023/10/05 01:12:31;0.00;0.00;0.62;0.00;0.00;0.62;4.10;2.30;;;26.60;28.00;;;;;;2272530;61;20444;-65
2023/10/05 01:15:21;0.00;0.00;0.62;0.00;0.00;0.62;3.90;2.00;;;26.60;28.00;;;;;;2272631;61;20390;-66
2023/10/05 01:18:08;0.00;0.00;0.62;0.00;0.00;0.62;4.60;2.60;;;26.60;28.00;;;;;;2272125;61;20412;-68
2023/10/05 01:20:56;0.00;0.00;0.62;0.00;0.00;0.62;2.67;1.73;;;26.60;28.00;;;;;;2269348;61;20501;-65
2023/10/05 01:23:44;0.00;0.00;0.62;0.00;0.00;0.62;5.00;2.67;;;26.60;27.90;;;;;;2272537;61;20389;-65
2023/10/05 01:26:29;0.00;0.00;0.62;0.00;0.00;0.62;4.90;2.50;;;26.60;28.00;;;;;;2269379;61;20362;-65
2023/10/05 01:29:13;0.00;0.00;0.62;0.00;0.00;0.62;4.50;2.13;;;26.60;27.90;;;;;;2269082;61;20442;-65
2023/10/05 01:31:58;0.00;0.00;0.62;0.00;0.00;0.62;3.80;2.00;;;26.60;27.90;;;;;;2270269;60;20390;-65
2023/10/05 01:34:49;0.00;0.00;0.62;0.00;0.00;0.62;3.00;2.00;;;26.60;28.40;;;;;;2275608;60;20431;-69
2023/10/05 01:37:36;0.00;0.00;0.62;0.00;0.00;0.62;4.13;1.93;;;26.60;27.90;;;;;;2266718;60;20508;-66
2023/10/05 01:40:29;0.00;0.00;0.62;0.00;0.00;0.62;3.43;2.27;;;26.60;27.90;;;;;;2267455;61;20378;-65
2023/10/05 01:43:15;0.00;0.00;0.62;0.00;0.00;0.62;3.70;2.03;;;26.60;27.90;;;;;;2272521;61;20362;-66
2023/10/05 01:46:00;0.00;0.00;0.62;0.00;0.00;0.62;3.77;2.20;;;26.60;27.90;;;;;;2276591;60;20816;-66
2023/10/05 01:48:45;0.00;0.00;0.62;0.00;0.00;0.62;3.83;2.10;;;26.60;27.90;;;;;;2276185;60;20491;-66
2023/10/05 01:51:31;0.00;0.00;0.62;0.00;0.00;0.62;4.07;2.00;;;26.60;27.80;;;;;;2273498;60;20382;-65
2023/10/05 01:54:16;0.00;0.00;0.62;0.00;0.00;0.62;3.80;1.90;;;26.60;27.80;;;;;;2273274;60;20500;-66
2023/10/05 01:57:09;0.00;0.00;0.62;0.00;0.00;0.62;4.57;2.20;;;26.60;27.80;;;;;;2273322;60;20369;-65
2023/10/05 01:59:54;0.00;0.00;0.62;0.00;0.00;0.62;3.30;2.10;;;26.60;27.80;;;;;;2273138;60;20841;-64
2023/10/05 02:02:41;0.00;0.00;0.62;0.00;0.00;0.62;3.43;2.23;;;26.60;27.80;;;;;;2273326;60;20368;-66
2023/10/05 02:05:26;0.00;0.00;0.62;0.00;0.00;0.62;4.60;2.43;;;26.60;27.80;;;;;;2273402;60;20344;-65
2023/10/05 02:08:14;0.00;0.00;0.62;0.00;0.00;0.62;4.40;2.20;;;26.60;27.80;;;;;;2272972;60;20908;-65
2023/10/05 02:11:01;0.00;0.00;0.62;0.00;0.00;0.62;5.43;2.10;;;26.60;27.80;;;;;;2273127;60;20470;-66
2023/10/05 02:13:48;0.00;0.00;0.62;0.00;0.00;0.62;2.77;1.87;;;26.60;27.80;;;;;;2273452;60;20441;-66
2023/10/05 02:16:33;0.00;0.00;0.62;0.00;0.00;0.62;4.23;2.20;;;26.60;27.80;;;;;;2273425;60;20369;-66
2023/10/05 02:19:19;0.00;0.00;0.62;0.00;0.00;0.62;4.63;2.13;;;26.60;27.80;;;;;;2272944;60;20416;-66
2023/10/05 02:22:10;0.00;0.00;0.62;0.00;0.00;0.62;4.03;2.50;;;26.60;27.80;;;;;;2276590;60;20527;-66
2023/10/05 02:24:56;0.00;0.00;0.62;0.00;0.00;0.62;3.83;2.20;;;26.60;27.80;;;;;;2276210;60;20419;-66
2023/10/05 02:27:46;0.00;0.00;0.62;0.00;0.00;0.62;2.73;1.60;;;26.50;27.80;;;;;;2273306;60;20793;-67
2023/10/05 02:30:33;0.00;0.00;0.62;0.00;0.00;0.62;2.93;2.00;;;26.60;27.80;;;;;;2276465;60;20917;-66
2023/10/05 02:33:21;0.00;0.00;0.62;0.00;0.00;0.62;3.60;2.13;;;26.50;27.80;;;;;;2276182;60;20369;-65
2023/10/05 02:36:11;0.00;0.00;0.62;0.00;0.00;0.62;5.30;2.13;;;26.50;27.80;;;;;;2276613;60;20356;-65
2023/10/05 02:38:56;0.00;0.00;0.62;0.00;0.00;0.62;6.30;1.97;;;26.50;27.80;;;;;;2274678;60;20420;-65
2023/10/05 02:41:43;0.00;0.00;0.62;0.00;0.00;0.62;2.93;2.10;;;26.50;27.80;;;;;;2269013;61;20412;-65
2023/10/05 02:44:30;0.00;0.00;0.62;0.00;0.00;0.62;3.90;2.07;;;26.50;27.80;;;;;;2269142;61;20354;-66
2023/10/05 02:47:22;0.00;0.00;0.62;0.00;0.00;0.62;3.37;1.83;;;26.50;27.80;;;;;;2269036;61;20501;-65
2023/10/05 02:50:08;0.00;0.00;0.62;0.00;0.00;0.62;4.90;2.10;;;26.50;27.80;;;;;;2268686;61;20406;-66
2023/10/05 02:52:55;0.00;0.00;0.62;0.00;0.00;0.62;4.43;2.80;;;26.50;27.80;;;;;;2272441;61;20893;-65
2023/10/05 02:55:40;0.00;0.00;0.62;0.00;0.00;0.62;4.43;2.03;;;26.50;27.80;;;;;;2272118;61;20925;-66
2023/10/05 02:58:25;0.00;0.00;0.62;0.00;0.00;0.62;4.43;2.27;;;26.50;27.80;;;;;;2272040;61;20407;-65
2023/10/05 03:01:10;0.00;0.00;0.62;0.00;0.00;0.62;3.53;1.83;;;26.50;27.80;;;;;;2269121;60;20469;-69
2023/10/05 03:03:56;0.00;0.00;0.62;0.00;0.00;0.62;4.10;2.20;;;26.50;27.80;;;;;;2273082;61;20362;-65
2023/10/05 03:06:41;0.00;0.00;0.62;0.00;0.00;0.62;3.70;2.10;;;26.50;27.90;;;;;;2273068;61;20401;-63
2023/10/05 03:09:26;0.00;0.00;0.62;0.00;0.00;0.62;3.70;2.10;;;26.50;27.90;;;;;;2272621;61;20401;-64
2023/10/05 03:12:11;0.00;0.00;0.62;0.00;0.00;0.62;3.43;2.27;;;26.50;27.90;;;;;;2272920;61;20386;-65
2023/10/05 03:14:56;0.00;0.00;0.62;0.00;0.00;0.62;4.57;2.40;;;26.50;27.90;;;;;;2273036;61;20470;-66
2023/10/05 03:17:45;0.00;0.00;0.62;0.00;0.00;0.62;5.37;2.23;;;26.40;28.40;;;;;;2269712;61;20835;-65
2023/10/05 03:20:33;0.00;0.00;0.62;0.00;0.00;0.62;3.00;2.20;;;26.40;27.90;;;;;;2269917;61;20425;-65
2023/10/05 03:23:18;0.00;0.00;0.62;0.00;0.00;0.62;5.00;2.40;;;26.40;27.90;;;;;;2269601;61;20417;-65
2023/10/05 03:26:02;0.00;0.00;0.62;0.00;0.00;0.62;4.27;2.47;;;26.40;27.90;;;;;;2272990;60;20991;-66
2023/10/05 03:28:49;0.00;0.00;0.62;0.00;0.00;0.62;4.50;2.13;;;26.40;27.90;;;;;;2272072;61;20346;-65
2023/10/05 03:31:37;0.00;0.00;0.62;0.00;0.00;0.62;4.93;2.30;;;26.40;27.90;;;;;;2272733;61;20386;-66
2023/10/05 03:34:26;0.00;0.00;0.62;0.00;0.00;0.62;4.50;2.00;;;26.40;27.90;;;;;;2269553;61;20385;-64
2023/10/05 03:37:15;0.00;0.00;0.62;0.00;0.00;0.62;3.53;2.20;;;26.40;28.00;;;;;;2273315;61;20890;-65
2023/10/05 03:42:56;0.00;0.00;0.62;0.00;0.00;0.62;2.77;1.80;;;26.40;27.90;;;;;;2270028;61;20416;-65
2023/10/05 03:45:42;0.00;0.00;0.62;0.00;0.00;0.62;3.47;2.03;;;26.40;27.90;;;;;;2269806;61;20370;-64
2023/10/05 03:48:31;0.00;0.00;0.62;0.00;0.00;0.62;2.57;1.67;;;26.40;28.00;;;;;;2272411;61;21028;-64
2023/10/05 03:51:17;0.00;0.00;0.62;0.00;0.00;0.62;3.27;2.10;;;26.40;28.00;;;;;;2266808;61;20932;-65
2023/10/05 03:54:07;0.00;0.00;0.62;0.00;0.00;0.62;3.60;1.90;;;26.40;28.00;;;;;;2269559;61;20884;-65
2023/10/05 03:57:30;0.00;0.00;0.62;0.00;0.00;0.62;4.20;2.23;;;26.30;27.90;;;;;;2269779;61;20378;-62
2023/10/05 04:00:23;0.00;0.00;0.62;0.00;0.00;0.62;4.97;2.80;;;26.30;27.90;;;;;;2269542;61;20902;-65
2023/10/05 04:03:09;0.00;0.00;0.62;0.00;0.00;0.62;3.00;2.07;;;26.30;27.90;;;;;;2269637;61;20429;-63
2023/10/05 04:05:53;0.00;0.00;0.62;0.00;0.00;0.62;4.03;2.00;;;26.30;28.00;;;;;;2269756;61;20394;-63
2023/10/05 04:08:38;0.00;0.00;0.62;0.00;0.00;0.62;3.90;2.40;;;26.30;28.00;;;;;;2269117;61;20384;-63
2023/10/05 04:11:26;0.00;0.00;0.62;0.00;0.00;0.62;6.13;2.73;;;26.30;28.00;;;;;;2272995;61;20381;-64
2023/10/05 04:14:12;0.00;0.00;0.62;0.00;0.00;0.62;3.33;2.33;;;26.30;28.00;;;;;;2272524;60;20948;-65
2023/10/05 04:16:59;0.00;0.00;0.62;0.00;0.00;0.62;3.20;1.90;;;26.30;28.00;;;;;;2273000;61;20913;-64
2023/10/05 04:19:44;0.00;0.00;0.62;0.00;0.00;0.62;3.60;1.93;;;26.30;28.00;;;;;;2272667;61;20405;-62
2023/10/05 04:22:29;0.00;0.00;0.62;0.00;0.00;0.62;3.83;2.20;;;26.30;28.00;;;;;;2272939;61;20786;-65
2023/10/05 04:25:16;0.00;0.00;0.62;0.00;0.00;0.62;3.57;2.23;;;26.30;28.00;;;;;;2272689;61;20349;-64
2023/10/05 04:28:02;0.00;0.00;0.62;0.00;0.00;0.62;4.17;2.00;;;26.30;28.00;;;;;;2272464;60;20378;-65
2023/10/05 04:30:46;0.00;0.00;0.62;0.00;0.00;0.62;3.90;2.30;;;26.30;28.00;;;;;;2272856;61;20415;-64
2023/10/05 04:33:31;0.00;0.00;0.62;0.00;0.00;0.62;3.43;2.10;;;26.30;28.00;;;;;;2272729;61;20458;-65
2023/10/05 04:36:17;0.00;0.00;0.62;0.00;0.00;0.62;5.40;2.63;;;26.30;28.00;;;;;;2272641;61;20370;-65
2023/10/05 04:39:04;0.00;0.00;0.62;0.00;0.00;0.62;4.90;2.30;;;26.30;28.00;;;;;;2272491;61;20379;-65
2023/10/05 04:41:49;0.00;0.00;0.62;0.00;0.00;0.62;3.17;1.90;;;26.30;28.00;;;;;;2272830;61;20370;-68
2023/10/05 04:44:36;0.00;0.00;0.62;0.00;0.00;0.62;4.10;2.30;;;26.30;28.00;;;;;;2269777;61;20461;-65
2023/10/05 04:47:21;0.00;0.00;0.62;0.00;0.00;0.62;3.40;1.77;;;26.20;28.00;;;;;;2272781;61;20408;-65
2023/10/05 04:50:07;0.00;0.00;0.62;0.00;0.00;0.62;3.47;2.40;;;26.30;28.10;;;;;;2272514;61;20880;-65
2023/10/05 04:52:52;0.00;0.00;0.62;0.00;0.00;0.62;4.17;2.40;;;26.30;28.10;;;;;;2272459;61;20358;-66
2023/10/05 04:55:41;0.00;0.00;0.62;0.00;0.00;0.62;4.37;2.70;;;26.30;28.10;;;;;;2272642;61;20410;-67
2023/10/05 04:58:53;0.00;0.00;0.62;0.00;0.00;0.62;4.77;2.90;;;26.20;28.30;;;;;;2272306;61;20398;-64
2023/10/05 05:07:22;0.00;0.00;0.62;0.00;0.00;0.62;4.77;2.80;;;26.20;28.10;;;;;;2272888;61;20886;-64
2023/10/05 05:10:11;0.00;0.00;0.62;0.00;0.00;0.62;5.10;3.73;;;26.20;28.10;;;;;;2272486;61;20363;-66
2023/10/05 05:12:57;0.00;0.00;0.62;0.00;0.00;0.62;6.17;3.90;;;26.20;28.10;;;;;;2272592;61;20401;-66
2023/10/05 05:15:42;0.00;0.00;0.62;0.00;0.00;0.62;4.87;3.50;;;26.20;28.10;;;;;;2272298;61;20389;-63
2023/10/05 05:18:28;0.00;0.00;0.62;0.00;0.00;0.62;5.23;3.40;;;26.20;28.10;;;;;;2269014;61;20390;-63
2023/10/05 05:21:14;0.00;0.00;0.62;0.00;0.00;0.62;4.20;3.50;;;26.20;28.10;;;;;;2272488;61;20382;-65
2023/10/05 05:23:59;0.00;0.00;0.62;0.00;0.00;0.62;3.47;2.70;;;26.20;28.10;;;;;;2272422;61;20358;-64
2023/10/05 05:26:46;0.00;0.00;0.62;0.00;0.00;0.62;4.80;3.20;;;26.20;28.10;;;;;;2272827;61;20358;-63
2023/10/05 05:29:32;0.00;0.00;0.62;0.00;0.00;0.62;4.50;3.03;;;26.20;28.10;;;;;;2269226;61;20367;-65
2023/10/05 05:32:19;0.00;0.00;0.62;0.00;0.00;0.62;5.00;2.73;;;26.20;28.10;;;;;;2272693;61;20417;-66
2023/10/05 05:35:08;0.00;0.00;0.62;0.00;0.00;0.62;5.53;2.83;;;26.20;28.10;;;;;;2272574;61;20459;-66
2023/10/05 05:37:56;0.00;0.00;0.62;0.00;0.00;0.62;5.47;3.33;;;26.20;28.10;;;;;;2272375;61;20939;-64
2023/10/05 05:40:49;0.00;0.00;0.62;0.00;0.00;0.62;4.87;2.97;;;26.20;28.10;;;;;;2640231;39;20406;-65
2023/10/05 05:43:34;0.00;0.00;0.62;0.00;0.00;0.62;6.60;3.10;;;26.20;28.10;;;;;;2274692;61;20393;-68
2023/10/05 05:46:18;0.00;0.00;0.62;0.00;0.00;0.62;4.40;2.90;;;26.20;28.10;;;;;;2272413;61;20359;-67
2023/10/05 05:49:08;0.00;0.00;0.62;0.00;0.00;0.62;5.40;2.73;;;26.20;28.10;;;;;;2272161;61;20416;-66
2023/10/05 05:51:57;0.00;0.00;0.62;0.00;0.00;0.62;4.13;2.67;;;26.20;28.20;;;;;;2272653;61;20926;-66
2023/10/05 05:54:43;0.00;0.00;0.62;0.00;0.00;0.62;6.40;3.07;;;26.20;28.20;;;;;;2272510;61;20428;-65
2023/10/05 05:57:28;0.00;0.00;0.62;0.00;0.00;0.62;4.77;3.17;;;26.20;28.20;;;;;;2272558;61;20840;-65
2023/10/05 06:00:18;0.00;0.00;0.62;0.00;0.00;0.62;4.80;2.60;;;26.20;28.20;;;;;;2272127;61;20803;-65
2023/10/05 06:03:04;0.00;0.00;0.62;0.00;0.00;0.62;4.10;2.47;;;26.20;28.20;;;;;;2272452;61;20357;-63
2023/10/05 06:05:49;0.00;0.00;0.62;0.00;0.00;0.62;4.23;2.50;;;26.20;28.20;;;;;;2274907;60;20367;-64
2023/10/05 06:08:35;0.00;0.00;0.62;0.00;0.00;0.62;4.10;2.90;;;26.20;28.20;;;;;;2271979;61;20401;-66
2023/10/05 06:11:20;0.00;0.00;0.62;0.00;0.00;0.62;3.67;2.50;;;26.10;28.20;;;;;;2272484;61;20390;-64
2023/10/05 06:14:05;0.00;0.00;0.62;0.00;0.00;0.62;5.43;2.80;;;26.10;28.30;;;;;;2272363;61;20408;-64
2023/10/05 06:16:50;0.00;0.00;0.62;0.00;0.00;0.62;4.07;2.80;;;26.10;28.20;;;;;;2272559;61;20358;-64
2023/10/05 06:19:36;0.00;0.00;0.62;0.00;0.00;0.62;5.47;2.77;;;26.10;28.20;;;;;;2272201;61;20850;-64
2023/10/05 06:22:20;0.00;0.00;0.62;0.00;0.00;0.62;3.90;2.50;;;26.20;28.20;;;;;;2272175;61;20465;-65
2023/10/05 06:25:08;0.00;0.00;0.62;0.00;0.00;0.62;6.70;2.83;;;26.10;28.20;;;;;;2272634;61;20505;-67
2023/10/05 06:27:53;0.00;0.00;0.62;0.00;0.00;0.62;4.17;2.80;;;26.10;28.20;;;;;;2272165;61;20359;-66
2023/10/05 06:30:38;0.00;0.00;0.62;0.00;0.00;0.62;4.10;2.30;;;26.10;28.20;;;;;;2272254;61;20496;-66
2023/10/05 06:33:26;0.00;0.00;0.62;0.00;0.00;0.62;3.10;2.20;;;26.10;28.20;;;;;;2272473;61;20377;-65
2023/10/05 06:36:10;0.00;0.00;0.62;0.00;0.00;0.62;3.47;2.37;;;26.10;28.20;;;;;;2272449;60;20385;-66
2023/10/05 06:38:56;0.00;0.00;0.62;0.00;0.00;0.62;3.20;2.47;;;26.10;28.20;;;;;;2272788;61;20420;-64
2023/10/05 06:41:42;0.00;0.00;0.62;0.00;0.00;0.62;5.27;2.70;;;26.10;28.20;;;;;;2274712;60;20384;-65
2023/10/05 06:44:28;0.00;0.00;0.62;0.00;0.00;0.62;3.80;2.43;;;26.10;28.20;;;;;;2276782;60;20381;-71
2023/10/05 06:47:35;0.00;0.00;0.62;0.00;0.00;0.62;4.10;2.80;;;26.10;28.20;;;;;;2277062;60;20403;-65
2023/10/05 06:50:18;0.00;0.00;0.62;0.00;0.00;0.62;3.43;2.23;;;26.10;28.20;;;;;;2277181;60;20379;-66
2023/10/05 06:53:03;0.00;0.00;0.62;0.00;0.00;0.62;3.07;1.90;;;26.10;28.20;;;;;;2276881;60;20364;-65
2023/10/05 06:55:48;0.00;0.00;0.62;0.00;0.00;0.62;3.00;1.90;;;26.10;28.20;;;;;;2277142;60;21024;-63
2023/10/05 06:58:35;0.00;0.00;0.62;0.00;0.00;0.62;4.53;2.33;;;26.10;28.20;;;;;;2276622;60;20943;-66
2023/10/05 07:01:20;0.00;0.00;0.62;0.00;0.00;0.62;2.80;2.10;;;26.10;28.20;;;;;;2277200;60;20819;-66
2023/10/05 07:04:08;0.00;0.00;0.62;0.00;0.00;0.62;5.70;2.70;;;26.10;28.30;;;;;;2277170;60;20365;-62
2023/10/05 07:06:52;0.00;0.00;0.62;0.00;0.00;0.62;4.20;1.97;;;26.10;28.30;;;;;;2276965;60;20757;-63
2023/10/05 07:09:37;0.00;0.00;0.62;0.00;0.00;0.62;4.20;2.57;;;26.10;28.30;;;;;;2276856;60;20817;-64
2023/10/05 07:12:21;0.00;0.00;0.62;0.00;0.00;0.62;3.57;2.27;;;26.10;28.30;;;;;;2273987;60;20415;-64
2023/10/05 07:15:09;0.00;0.00;0.62;0.00;0.00;0.62;3.40;2.17;;;26.10;28.30;;;;;;2277129;60;20377;-62
2023/10/05 07:17:54;0.00;0.00;0.62;0.00;0.00;0.62;2.70;2.10;;;26.10;28.30;;;;;;2276926;60;20402;-65
2023/10/05 07:20:41;0.00;0.00;0.62;0.00;0.00;0.62;3.53;2.00;;;26.10;28.30;;;;;;2277003;60;20393;-65
2023/10/05 07:23:29;0.00;0.00;0.62;0.00;0.00;0.62;2.90;1.90;;;26.10;28.30;;;;;;2277176;60;20361;-64
2023/10/05 07:26:14;0.00;0.00;0.62;0.00;0.00;0.62;3.53;2.00;;;26.10;28.30;;;;;;2277229;60;20447;-65
2023/10/05 07:28:58;0.00;0.00;0.62;0.00;0.00;0.62;2.90;1.77;;;26.10;28.30;;;;;;2276563;60;20369;-65
2023/10/05 07:31:44;0.00;0.00;0.62;0.00;0.00;0.62;3.87;2.07;;;26.10;28.40;;;;;;2277143;60;20909;-65
2023/10/05 07:34:30;0.00;0.00;0.62;0.00;0.00;0.62;2.43;2.03;;;26.10;28.40;;;;;;2277126;60;20503;-66
2023/10/05 07:37:15;0.00;0.00;0.62;0.00;0.00;0.62;3.80;2.00;;;26.10;28.40;;;;;;2682860;45;20370;-65
2023/10/05 07:40:00;0.00;0.00;0.62;0.00;0.00;0.62;5.50;2.33;;;26.10;28.40;;;;;;2276171;60;20373;-65
2023/10/05 07:42:46;0.00;0.00;0.62;0.00;0.00;0.62;4.17;2.07;;;26.10;28.50;;;;;;2276954;60;20414;-65
2023/10/05 07:45:34;0.00;0.00;0.62;0.00;0.00;0.62;3.00;1.83;;;26.10;28.50;;;;;;2276924;60;20374;-66
2023/10/05 07:48:21;0.00;0.00;0.62;0.00;0.00;0.62;3.33;2.37;;;26.10;28.50;;;;;;2276532;60;20479;-67
2023/10/05 07:51:06;0.00;0.00;0.62;0.00;0.00;0.62;4.13;1.97;;;26.10;28.50;;;;;;2293692;39;20424;-65
2023/10/05 07:53:51;0.00;0.00;0.62;0.00;0.00;0.62;2.23;1.57;;;26.10;28.50;;;;;;2268541;61;20426;-65
2023/10/05 07:56:35;0.00;0.00;0.62;0.00;0.00;0.62;3.90;2.20;;;26.00;28.50;;;;;;2268854;61;20355;-66
2023/10/05 07:59:21;0.00;0.00;0.62;0.00;0.00;0.62;3.13;2.00;;;26.00;28.50;;;;;;2268455;61;20887;-66
2023/10/05 08:02:06;0.00;0.00;0.62;0.00;0.00;0.62;3.60;2.30;;;26.00;28.50;;;;;;2268926;61;20486;-65
2023/10/05 08:04:52;0.00;0.00;0.62;0.00;0.00;0.62;4.57;2.40;;;26.00;28.50;;;;;;2268940;61;20402;-66
2023/10/05 08:07:37;0.00;0.00;0.62;0.00;0.00;0.62;3.50;1.90;;;26.00;28.50;;;;;;2269762;61;20462;-65
2023/10/05 08:10:23;0.00;0.00;0.62;0.00;0.00;0.62;3.13;2.20;;;26.00;28.60;;;;;;2268933;61;20371;-65
2023/10/05 08:13:07;0.00;0.00;0.62;0.00;0.00;0.62;4.43;2.23;;;26.00;28.60;;;;;;2268285;61;20359;-71
2023/10/05 08:15:52;0.00;0.00;0.62;0.00;0.00;0.62;3.13;1.63;;;26.00;28.60;;;;;;2268671;61;20833;-66
2023/10/05 08:18:37;0.00;0.00;0.62;0.00;0.00;0.62;3.40;2.43;;;26.10;28.70;;;;;;2268310;61;20370;-67
2023/10/05 08:21:23;0.00;0.00;0.62;0.00;0.00;0.62;4.03;2.20;;;26.10;28.70;;;;;;2268580;61;20438;-65
2023/10/05 08:24:08;0.00;0.00;0.62;0.00;0.00;0.62;3.93;2.37;;;26.00;28.60;;;;;;2268747;61;20394;-66
2023/10/05 08:26:56;0.00;0.00;0.62;0.00;0.00;0.62;4.40;2.30;;;26.00;28.60;;;;;;2268845;61;20391;-66
2023/10/05 08:29:42;0.00;0.00;0.62;0.00;0.00;0.62;3.70;2.43;;;26.10;28.70;;;;;;2268358;61;20363;-67
2023/10/05 08:32:27;0.00;0.00;0.62;0.00;0.00;0.62;2.60;1.83;;;26.10;28.70;;;;;;2268900;61;20378;-66
2023/10/05 08:35:17;0.00;0.00;0.62;0.00;0.00;0.62;2.93;1.97;;;26.00;28.70;;;;;;2268506;61;20379;-65
2023/10/05 08:38:08;0.00;0.00;0.62;0.00;0.00;0.62;4.90;2.17;;;26.10;28.70;;;;;;2268490;61;20410;-65
2023/10/05 08:40:53;0.00;0.00;0.62;0.00;0.00;0.62;5.13;2.43;;;26.10;28.80;;;;;;2264824;61;20473;-65
2023/10/05 08:43:39;0.00;0.00;0.62;0.00;0.00;0.62;3.40;1.93;;;26.10;28.80;;;;;;2264494;61;20372;-65
2023/10/05 08:46:24;0.00;0.00;0.62;0.00;0.00;0.62;3.03;2.03;;;26.10;29.30;;;;;;2264664;61;20399;-66
2023/10/05 08:49:10;0.00;0.00;0.62;0.00;0.00;0.62;4.27;2.00;;;26.10;28.80;;;;;;2261144;61;20444;-65
2023/10/05 08:51:56;0.00;0.00;0.62;0.00;0.00;0.62;3.67;2.20;;;26.10;28.80;;;;;;2264381;61;20392;-66
2023/10/05 08:54:45;0.00;0.00;0.62;0.00;0.00;0.62;2.90;1.93;;;26.10;28.80;;;;;;2264606;61;20372;-66
2023/10/05 08:57:30;0.00;0.00;0.62;0.00;0.00;0.62;3.83;2.50;;;26.10;28.80;;;;;;2264468;61;20901;-66
2023/10/05 09:00:37;0.00;0.00;0.62;0.00;0.00;0.62;2.83;1.90;;;26.20;28.90;;;;;;2264391;61;20935;-66
2023/10/05 09:03:29;0.00;0.00;0.62;0.00;0.00;0.62;2.77;1.90;;;26.20;28.90;;;;;;2264700;61;20750;-66
2023/10/05 09:06:20;0.00;0.00;0.62;0.00;0.00;0.62;3.70;2.40;;;26.20;28.90;;;;;;2264501;61;20356;-65
2023/10/05 09:11:51;0.00;0.00;0.62;0.00;0.00;0.62;4.43;2.20;;;26.20;28.90;;;;;;2264573;61;20388;-64
2023/10/05 09:14:38;0.00;0.00;0.62;0.00;0.00;0.62;3.93;2.03;;;26.20;28.90;;;;;;2267738;61;20399;-65
2023/10/05 09:17:23;0.00;0.00;0.62;0.00;0.00;0.62;4.73;2.30;;;26.20;28.90;;;;;;2268716;61;20371;-65
2023/10/05 09:20:23;0.00;0.00;0.62;0.00;0.00;0.62;7.57;2.23;;;26.20;28.90;;;;;;2268108;61;20770;-65
2023/10/05 09:23:20;0.00;0.00;0.62;0.00;0.00;0.62;3.23;1.77;;;26.20;29.00;;;;;;2268638;61;20399;-66
2023/10/05 09:26:20;0.00;0.00;0.62;0.00;0.00;0.62;3.40;2.60;;;26.20;29.00;;;;;;2268503;61;20487;-66
2023/10/05 09:29:20;0.00;0.00;0.62;0.00;0.00;0.62;6.80;2.27;;;26.20;29.00;;;;;;2268099;61;20367;-64
2023/10/05 09:32:08;0.00;0.00;0.62;0.00;0.00;0.62;5.77;2.37;;;26.20;29.00;;;;;;2268367;61;20383;-63
2023/10/05 09:34:56;0.00;0.00;0.62;0.00;0.00;0.62;2.70;1.90;;;26.20;29.00;;;;;;2268169;61;20371;-63
2023/10/05 09:37:43;0.00;0.00;0.62;0.00;0.00;0.62;4.17;2.17;;;26.20;29.00;;;;;;2268593;61;20478;-67
2023/10/05 09:40:29;0.00;0.00;0.62;0.00;0.00;0.62;3.23;2.03;;;26.20;29.00;;;;;;2625701;45;20444;-65
2023/10/05 09:43:18;0.00;0.00;0.62;0.00;0.00;0.62;3.27;2.10;;;26.20;29.50;;;;;;2264335;61;20448;-66
2023/10/05 09:46:09;0.00;0.00;0.62;0.00;0.00;0.62;5.73;2.40;;;26.20;29.00;;;;;;2264507;61;20356;-67
2023/10/05 09:49:01;0.00;0.00;0.62;0.00;0.00;0.62;3.43;2.20;;;26.20;29.00;;;;;;2263737;61;20360;-69
2023/10/05 09:51:48;0.00;0.00;0.62;0.00;0.00;0.62;3.50;2.17;;;26.20;29.00;;;;;;2264479;61;20920;-65
2023/10/05 09:54:33;0.00;0.00;0.62;0.00;0.00;0.62;4.83;2.43;;;26.20;29.00;;;;;;2264364;61;20519;-64
2023/10/05 09:57:20;0.00;0.00;0.62;0.00;0.00;0.62;3.30;2.20;;;26.20;29.00;;;;;;2264284;61;20378;-64
2023/10/05 10:00:13;0.00;0.00;0.62;0.00;0.00;0.62;4.00;2.37;;;26.30;29.10;;;;;;2260913;61;20762;-65
2023/10/05 10:03:01;0.00;0.00;0.62;0.00;0.00;0.62;3.87;2.03;;;26.20;29.00;;;;;;2264052;61;20410;-64
2023/10/05 10:05:49;0.00;0.00;0.62;0.00;0.00;0.62;4.30;2.30;;;26.30;29.10;;;;;;2264398;61;20426;-64
2023/10/05 10:08:42;0.00;0.00;0.62;0.00;0.00;0.62;2.83;1.93;;;26.30;29.10;;;;;;2264164;61;20535;-64
2023/10/05 10:11:31;0.00;0.00;0.62;0.00;0.00;0.62;6.87;2.30;;;26.30;29.10;;;;;;2264437;61;20384;-65
2023/10/05 10:14:22;0.00;0.00;0.62;0.00;0.00;0.62;3.77;2.00;;;26.30;29.10;;;;;;2265071;61;20434;-64
2023/10/05 10:17:24;0.00;0.00;0.62;0.00;0.00;0.62;2.83;1.70;;;26.30;29.10;;;;;;2261742;61;20340;-63
2023/10/05 10:20:34;0.00;0.00;0.62;0.00;0.00;0.62;3.47;2.00;;;26.30;29.10;;;;;;2261505;61;20402;-65
2023/10/05 10:23:35;0.00;0.00;0.62;0.00;0.00;0.62;2.70;1.83;;;26.30;29.10;;;;;;2265069;61;20536;-66
2023/10/05 10:26:24;0.00;0.00;0.62;0.00;0.00;0.62;2.93;2.30;;;26.30;29.10;;;;;;2264896;61;20871;-65
2023/10/05 10:29:12;0.00;0.00;0.62;0.00;0.00;0.62;3.77;2.00;;;26.30;29.60;;;;;;2264640;61;20352;-65
2023/10/05 10:32:20;0.00;0.00;0.62;0.00;0.00;0.62;3.10;1.97;;;26.30;29.10;;;;;;2265016;61;20403;-64
2023/10/05 10:35:13;0.00;0.00;0.62;0.00;0.00;0.62;3.80;2.27;;;26.30;29.60;;;;;;2264634;61;20429;-66
2023/10/05 10:38:06;0.00;0.00;0.62;0.00;0.00;0.62;4.33;1.90;;;26.30;29.10;;;;;;2264633;61;20828;-67
2023/10/05 10:41:07;0.00;0.00;0.62;0.00;0.00;0.62;6.87;2.10;;;26.30;29.20;;;;;;2261757;61;20466;-66
2023/10/05 10:43:57;0.00;0.00;0.62;0.00;0.00;0.62;3.90;1.50;;;26.40;29.20;;;;;;2265130;61;20832;-64
2023/10/05 10:46:42;0.00;0.00;0.62;0.00;0.00;0.62;3.37;2.23;;;26.40;29.20;;;;;;2264934;61;20402;-63
2023/10/05 10:49:26;0.00;0.00;0.62;0.00;0.00;0.62;4.43;2.60;;;26.40;29.20;;;;;;2264617;61;20367;-66
2023/10/05 10:52:16;0.00;0.00;0.62;0.00;0.00;0.62;3.40;1.77;;;26.40;29.20;;;;;;2264835;61;20376;-64
2023/10/05 10:55:05;0.00;0.00;0.62;0.00;0.00;0.62;3.87;1.87;;;26.40;29.20;;;;;;2265118;61;20434;-66
2023/10/05 10:57:53;0.00;0.00;0.62;0.00;0.00;0.62;2.63;1.77;;;26.40;29.20;;;;;;2264828;61;20433;-65
2023/10/05 11:03:27;0.00;0.00;0.62;0.00;0.00;0.62;3.93;2.33;;;26.50;29.30;;;;;;2264727;61;20415;-66
2023/10/05 11:06:11;0.00;0.00;0.62;0.00;0.00;0.62;3.90;1.97;;;26.40;29.20;;;;;;2265030;61;20391;-66
2023/10/05 11:09:09;0.00;0.00;0.62;0.00;0.00;0.62;2.97;2.07;;;26.50;29.30;;;;;;2264301;61;20895;-65
2023/10/05 11:12:08;0.00;0.00;0.62;0.00;0.00;0.62;3.93;2.37;;;26.40;29.20;;;;;;2264831;61;20434;-66
2023/10/05 11:15:18;0.00;0.00;0.62;0.00;0.00;0.62;4.00;2.00;;;26.40;29.20;;;;;;2264849;61;20419;-65
2023/10/05 11:18:05;0.00;0.00;0.62;0.00;0.00;0.62;5.77;2.27;;;26.50;29.30;;;;;;2264530;61;20367;-63
2023/10/05 11:20:52;0.00;0.00;0.62;0.00;0.00;0.62;3.00;1.50;;;26.50;29.30;;;;;;2264665;61;20384;-66